Time;durP1;ratioP1;P1;durP2;ratioP2;P2;SDS_P1;SDS_P2;PMS_P1;PMS_P2;Temp;Humidity;BMP_temperature;BMP_pressure;BME280_temperature;BME280_humidity;BME280_pressure;Samples;Min_cycle;Max_cycle;Signal;HPM_P1;HPM_P2
2022/07/11 00:00:00;;;;;;;597.20;549.47;;;;;;;21.69;54.53;99360.13;341294;29;905;-73
2022/07/11 00:00:12;;;;;;;592.22;544.60;;;;;;;21.67;54.54;99358.56;342287;28;1662;-73
2022/07/11 00:00:23;;;;;;;593.00;545.33;;;;;;;21.69;54.04;99361.94;341068;29;921;-73
2022/07/11 00:00:34;;;;;;;594.55;546.75;;;;;;;21.70;54.02;99360.97;340655;28;1632;-73
2022/07/11 00:00:44;;;;;;;599.93;551.93;;;;;;;21.70;54.01;99360.97;343777;28;1058;-73
2022/07/11 00:00:55;;;;;;;600.38;552.33;;;;;;;21.71;54.48;99359.97;343789;28;1748;-73
2022/07/11 00:01:05;;;;;;;600.30;552.20;;;;;;;21.67;54.68;99355.91;343907;28;1199;-73
2022/07/11 00:01:15;;;;;;;601.13;553.03;;;;;;;21.64;54.57;99361.53;343438;28;1585;-73
2022/07/11 00:01:26;;;;;;;599.27;551.13;;;;;;;21.61;54.65;99364.47;342182;28;1177;-73
2022/07/11 00:01:36;;;;;;;601.67;553.30;;;;;;;21.60;54.45;99362.81;343396;28;1537;-73
2022/07/11 00:01:47;;;;;;;602.35;553.75;;;;;;;21.63;54.47;99362.53;341088;29;1345;-73
2022/07/11 00:01:59;;;;;;;598.27;549.83;;;;;;;21.62;54.23;99360.84;341144;29;1624;-73
2022/07/11 00:02:13;;;;;;;591.50;543.47;;;;;;;21.63;54.38;99366.03;339909;29;1001;-73
2022/07/11 00:02:23;;;;;;;586.55;538.65;;;;;;;21.65;54.45;99365.88;339882;29;983;-73
2022/07/11 00:02:34;;;;;;;594.33;546.27;;;;;;;21.67;54.49;99358.56;343901;28;1634;-73
2022/07/11 00:02:45;;;;;;;593.42;545.38;;;;;;;21.68;54.08;99362.91;345091;28;975;-73
2022/07/11 00:02:55;;;;;;;599.25;551.03;;;;;;;21.64;54.40;99359.72;343629;28;1983;-73
2022/07/11 00:03:05;;;;;;;599.63;551.43;;;;;;;21.63;54.64;99362.53;340992;29;1727;-73
2022/07/11 00:03:16;;;;;;;606.40;558.03;;;;;;;21.63;54.51;99362.53;341069;29;1721;-73
2022/07/11 00:03:26;;;;;;;608.85;560.47;;;;;;;21.64;54.52;99361.53;343811;28;1374;-74
2022/07/11 00:03:36;;;;;;;607.20;559.00;;;;;;;21.65;54.19;99366.72;342563;28;819;-74
2022/07/11 00:03:47;;;;;;;606.75;558.50;;;;;;;21.66;54.14;99354.25;339865;29;887;-74
2022/07/11 00:03:57;;;;;;;604.47;556.10;;;;;;;21.67;54.33;99363.91;341914;28;1716;-73
2022/07/11 00:04:08;;;;;;;601.53;553.10;;;;;;;21.68;54.03;99362.91;341140;29;1174;-73
2022/07/11 00:04:18;;;;;;;592.78;544.60;;;;;;;21.70;54.42;99368.94;341078;29;1415;-73
2022/07/11 00:04:29;;;;;;;587.77;539.93;;;;;;;21.69;54.44;99357.44;343845;28;1217;-73
2022/07/11 00:04:40;;;;;;;587.38;539.58;;;;;;;21.71;53.91;99359.97;342347;28;1639;-73
2022/07/11 00:04:50;;;;;;;594.00;546.20;;;;;;;21.71;54.34;99360.81;341031;29;1426;-73
2022/07/11 00:05:04;;;;;;;595.78;547.92;;;;;;;21.73;54.30;99355.34;342623;28;920;-73
2022/07/11 00:05:14;;;;;;;592.95;545.22;;;;;;;21.74;53.99;99359.69;343725;28;1678;-73
2022/07/11 00:05:25;;;;;;;590.88;543.13;;;;;;;21.74;54.06;99352.53;342467;28;1508;-73
2022/07/11 00:05:35;;;;;;;588.63;540.73;;;;;;;21.75;54.34;99361.38;341814;28;1403;-73
2022/07/11 00:05:45;;;;;;;591.77;543.77;;;;;;;21.74;54.57;99365.88;341209;29;1027;-73
2022/07/11 00:05:56;;;;;;;590.10;542.22;;;;;;;21.74;54.49;99354.38;341141;29;1579;-73
2022/07/11 00:06:06;;;;;;;589.63;541.83;;;;;;;21.72;54.22;99351.00;341246;29;1621;-73
2022/07/11 00:06:17;;;;;;;585.13;537.10;;;;;;;21.72;54.10;99362.50;340699;29;1922;-73
2022/07/11 00:06:27;;;;;;;587.97;539.87;;;;;;;21.72;54.53;99356.34;339799;29;1683;-73
2022/07/11 00:06:37;;;;;;;587.73;539.60;;;;;;;21.71;54.11;99355.50;341501;28;1474;-73
2022/07/11 00:06:48;;;;;;;589.85;541.90;;;;;;;21.69;54.30;99364.59;339745;29;1345;-73
2022/07/11 00:06:58;;;;;;;592.57;544.47;;;;;;;21.69;54.54;99365.44;339740;29;1719;-73
2022/07/11 00:07:09;;;;;;;595.92;547.63;;;;;;;21.71;54.46;99351.97;341410;28;1442;-73
2022/07/11 00:07:20;;;;;;;593.30;545.13;;;;;;;21.71;54.26;99352.81;343777;28;1776;-73
2022/07/11 00:07:30;;;;;;;591.10;543.03;;;;;;;21.71;54.44;99359.97;343660;28;1603;-73
2022/07/11 00:07:41;;;;;;;586.83;538.83;;;;;;;21.71;54.20;99355.50;343950;28;797;-73
2022/07/11 00:07:51;;;;;;;584.58;536.67;;;;;;;21.70;54.43;99359.13;342266;28;1536;-73
2022/07/11 00:08:03;;;;;;;582.23;534.13;;;;;;;21.69;54.54;99353.94;338719;29;1982;-73
2022/07/11 00:08:14;;;;;;;582.45;534.38;;;;;;;21.68;54.57;99354.94;340274;29;1313;-73
2022/07/11 00:08:24;;;;;;;583.15;535.20;;;;;;;21.68;54.46;99355.78;341138;29;950;-73
2022/07/11 00:08:35;;;;;;;585.57;537.97;;;;;;;21.70;54.46;99352.97;343157;28;1876;-73
2022/07/11 00:08:45;;;;;;;583.70;536.03;;;;;;;21.68;54.27;99350.44;342451;28;1375;-73
2022/07/11 00:08:55;;;;;;;581.50;533.90;;;;;;;21.69;54.40;99351.28;342399;28;1647;-73
2022/07/11 00:09:06;;;;;;;579.63;532.03;;;;;;;21.70;54.43;99350.31;341182;29;989;-73
2022/07/11 00:09:17;;;;;;;580.63;532.95;;;;;;;21.69;54.76;99352.13;344982;28;1680;-73
2022/07/11 00:09:27;;;;;;;578.25;530.60;;;;;;;21.70;54.57;99350.31;343937;28;845;-73
2022/07/11 00:09:38;;;;;;;577.40;529.70;;;;;;;21.67;54.36;99350.56;342392;28;1554;-73
2022/07/11 00:09:48;;;;;;;585.22;537.58;;;;;;;21.66;54.43;99352.41;342487;28;1315;-73
2022/07/11 00:09:58;;;;;;;589.00;541.30;;;;;;;21.67;54.37;99361.22;342533;28;1615;-73
2022/07/11 00:10:09;;;;;;;587.37;539.73;;;;;;;21.67;54.68;99353.25;342566;28;1328;-73
2022/07/11 00:10:19;;;;;;;579.07;531.60;;;;;;;21.67;54.22;99350.56;345123;28;1739;-73
2022/07/11 00:10:30;;;;;;;583.77;536.17;;;;;;;21.67;54.42;99348.75;345178;28;939;-73
2022/07/11 00:10:41;;;;;;;583.33;535.83;;;;;;;21.68;54.65;99353.09;342253;28;1691;-73
2022/07/11 00:10:51;;;;;;;589.85;542.15;;;;;;;21.68;54.60;99352.25;341091;28;1489;-73
2022/07/11 00:11:01;;;;;;;588.57;540.80;;;;;;;21.68;54.31;99352.25;343898;28;902;-73
2022/07/11 00:11:12;;;;;;;585.28;537.58;;;;;;;21.66;54.81;99351.59;342350;28;1908;-73
2022/07/11 00:11:22;;;;;;;585.40;537.60;;;;;;;21.62;54.70;99356.34;341942;28;2169;-73
2022/07/11 00:11:33;;;;;;;590.75;542.85;;;;;;;21.64;54.27;99348.22;341086;29;1694;-73
2022/07/11 00:11:43;;;;;;;594.07;545.90;;;;;;;21.63;54.37;99357.19;341199;28;1304;-73
2022/07/11 00:11:53;;;;;;;595.00;546.83;;;;;;;21.65;54.88;99358.75;342438;28;1561;-73
2022/07/11 00:12:04;;;;;;;594.58;546.38;;;;;;;21.65;54.62;99350.75;343861;28;959;-73
2022/07/11 00:12:15;;;;;;;593.45;545.45;;;;;;;21.64;54.46;99356.22;342439;28;1218;-73
2022/07/11 00:12:26;;;;;;;595.20;547.03;;;;;;;21.65;54.32;99347.25;343531;28;2281;-73
2022/07/11 00:12:37;;;;;;;593.28;545.17;;;;;;;21.66;54.42;99348.94;343473;28;1974;-73
2022/07/11 00:12:47;;;;;;;594.00;545.83;;;;;;;21.66;54.85;99354.25;342141;28;1527;-73
2022/07/11 00:12:57;;;;;;;583.17;535.33;;;;;;;21.67;54.46;99351.41;340968;29;1654;-73
2022/07/11 00:13:08;;;;;;;578.63;530.93;;;;;;;21.66;54.52;99362.25;342477;28;1075;-73
2022/07/11 00:13:18;;;;;;;579.43;531.73;;;;;;;21.66;54.61;99351.59;339786;29;1675;-73
2022/07/11 00:13:28;;;;;;;589.45;541.58;;;;;;;21.65;54.59;99352.56;342385;28;1323;-73
2022/07/11 00:13:39;;;;;;;589.70;541.87;;;;;;;21.66;54.93;99354.25;339838;29;1747;-73
2022/07/11 00:13:50;;;;;;;581.67;534.15;;;;;;;21.63;54.67;99358.03;340005;29;876;-73
2022/07/11 00:14:00;;;;;;;585.03;537.47;;;;;;;21.63;54.22;99354.53;342374;28;1746;-75
2022/07/11 00:14:11;;;;;;;589.43;541.77;;;;;;;21.61;54.35;99345.84;342409;28;1562;-74
2022/07/11 00:14:21;;;;;;;599.83;551.83;;;;;;;21.61;54.36;99360.00;342441;28;1172;-74
2022/07/11 00:14:31;;;;;;;592.90;545.13;;;;;;;21.62;54.76;99355.50;341102;29;1772;-74
2022/07/11 00:14:42;;;;;;;596.03;548.27;;;;;;;21.60;54.80;99354.81;342487;28;948;-74
2022/07/11 00:14:54;;;;;;;594.67;546.95;;;;;;;21.61;54.34;99356.50;342383;28;1355;-74
2022/07/11 00:15:04;;;;;;;585.67;538.03;;;;;;;21.60;55.27;99357.47;341281;29;988;-73
2022/07/11 00:15:15;;;;;;;581.40;533.83;;;;;;;21.54;55.40;99359.72;342345;28;1709;-73
2022/07/11 00:15:26;;;;;;;577.25;529.88;;;;;;;21.50;55.50;99360.97;340901;29;1382;-73
2022/07/11 00:15:36;;;;;;;589.97;542.28;;;;;;;21.49;54.87;99356.63;341076;29;1423;-73
2022/07/11 00:15:46;;;;;;;592.73;544.93;;;;;;;21.50;54.76;99360.97;339955;29;945;-73
2022/07/11 00:15:57;;;;;;;595.53;547.70;;;;;;;21.53;54.71;99363.34;342506;28;1706;-73
2022/07/11 00:16:07;;;;;;;596.93;548.90;;;;;;;21.55;54.72;99361.38;341051;29;1682;-73
2022/07/11 00:16:18;;;;;;;596.03;547.90;;;;;;;21.56;54.67;99351.56;337913;29;1762;-73
2022/07/11 00:16:28;;;;;;;599.20;550.85;;;;;;;21.58;54.63;99363.78;341066;29;1323;-73
2022/07/11 00:16:38;;;;;;;595.77;547.43;;;;;;;21.56;54.70;99365.75;343693;28;1487;-73
2022/07/11 00:16:50;;;;;;;602.80;554.40;;;;;;;21.54;54.64;99362.38;343713;28;1323;-73
2022/07/11 00:17:00;;;;;;;603.50;555.25;;;;;;;21.54;54.72;99359.72;339633;29;1756;-74
2022/07/11 00:17:10;;;;;;;601.27;553.13;;;;;;;21.51;54.68;99359.13;341310;29;931;-74
2022/07/11 00:17:21;;;;;;;598.08;549.83;;;;;;;21.51;55.23;99367.13;342791;28;1259;-74
2022/07/11 00:17:31;;;;;;;597.13;548.87;;;;;;;21.51;55.04;99365.31;346217;28;2391;-74
2022/07/11 00:17:42;;;;;;;589.97;541.85;;;;;;;21.53;55.06;99363.34;345179;28;1681;-74
2022/07/11 00:17:52;;;;;;;591.50;543.43;;;;;;;21.55;54.97;99360.56;345125;28;1441;-74
2022/07/11 00:18:02;;;;;;;590.87;542.93;;;;;;;21.55;54.68;99366.72;343917;28;932;-74
2022/07/11 00:18:13;;;;;;;601.45;553.20;;;;;;;21.56;54.80;99367.56;341104;29;915;-74
2022/07/11 00:18:25;;;;;;;593.50;545.47;;;;;;;21.57;54.78;99362.09;339956;29;1317;-74
2022/07/11 00:18:35;;;;;;;580.28;532.53;;;;;;;21.58;54.63;99361.13;340895;29;941;-74
2022/07/11 00:18:46;;;;;;;582.20;534.58;;;;;;;21.58;54.58;99369.09;343692;28;1272;-74
2022/07/11 00:18:56;;;;;;;593.20;545.30;;;;;;;21.60;54.86;99362.81;342419;28;1639;-74
2022/07/11 00:19:06;;;;;;;597.03;548.97;;;;;;;21.60;54.85;99362.81;339897;29;906;-74
2022/07/11 00:19:17;;;;;;;596.07;547.93;;;;;;;21.60;54.76;99365.47;341155;29;895;-74
2022/07/11 00:19:27;;;;;;;589.83;541.78;;;;;;;21.60;54.88;99363.63;343887;28;1600;-74
2022/07/11 00:19:38;;;;;;;586.60;538.67;;;;;;;21.61;54.71;99364.47;343672;28;1291;-74
2022/07/11 00:19:48;;;;;;;582.08;534.50;;;;;;;21.61;54.72;99369.81;343928;28;824;-74
2022/07/11 00:19:59;;;;;;;582.67;534.97;;;;;;;21.63;54.59;99367.84;343745;28;1539;-73
2022/07/11 00:20:10;;;;;;;585.80;538.10;;;;;;;21.61;54.49;99370.66;343879;28;883;-73
2022/07/11 00:20:20;;;;;;;585.67;537.92;;;;;;;21.62;54.67;99366.16;343788;28;1946;-73
2022/07/11 00:20:31;;;;;;;586.83;539.17;;;;;;;21.63;54.52;99363.38;342574;28;1736;-73
2022/07/11 00:20:41;;;;;;;585.70;537.97;;;;;;;21.64;54.62;99369.53;341028;28;1408;-73
2022/07/11 00:20:52;;;;;;;587.00;539.23;;;;;;;21.64;54.81;99358.88;342447;28;1645;-73
2022/07/11 00:21:02;;;;;;;587.72;540.05;;;;;;;21.66;54.62;99363.06;341568;28;1572;-73
2022/07/11 00:21:12;;;;;;;587.17;539.63;;;;;;;21.66;54.72;99367.56;342212;28;2113;-73
2022/07/11 00:21:23;;;;;;;588.77;541.17;;;;;;;21.63;54.35;99363.38;340920;29;1645;-73
2022/07/11 00:21:35;;;;;;;585.33;537.60;;;;;;;21.63;54.70;99362.53;341125;29;1509;-73
2022/07/11 00:21:49;;;;;;;590.20;542.13;;;;;;;21.61;54.57;99367.16;342542;28;975;-73
2022/07/11 00:21:59;;;;;;;591.28;543.28;;;;;;;21.62;54.75;99363.50;342242;28;1671;-73
2022/07/11 00:22:10;;;;;;;589.67;541.78;;;;;;;21.60;54.66;99363.63;341126;29;1228;-73
2022/07/11 00:22:20;;;;;;;589.77;541.77;;;;;;;21.60;54.50;99362.81;342246;28;1388;-73
2022/07/11 00:22:31;;;;;;;584.67;536.87;;;;;;;21.60;54.86;99360.13;342451;28;1323;-73
2022/07/11 00:22:41;;;;;;;585.00;537.05;;;;;;;21.59;54.50;99364.63;341119;28;1707;-73
2022/07/11 00:22:52;;;;;;;585.85;537.88;;;;;;;21.62;54.66;99371.50;342586;28;2010;-73
2022/07/11 00:23:02;;;;;;;592.80;544.70;;;;;;;21.62;54.26;99368.81;343846;28;875;-73
2022/07/11 00:23:12;;;;;;;588.00;540.23;;;;;;;21.60;54.56;99371.63;342444;28;1766;-73
2022/07/11 00:23:23;;;;;;;582.13;534.60;;;;;;;21.60;54.90;99368.13;343736;28;794;-73
2022/07/11 00:23:33;;;;;;;580.77;533.27;;;;;;;21.61;54.37;99364.47;342414;28;1665;-73
2022/07/11 00:23:44;;;;;;;583.38;535.95;;;;;;;21.61;55.00;99369.81;346276;28;1549;-73
2022/07/11 00:23:54;;;;;;;590.87;543.17;;;;;;;21.60;54.91;99368.13;342364;28;1814;-73
2022/07/11 00:24:06;;;;;;;586.88;539.13;;;;;;;21.59;54.60;99361.97;343783;28;1457;-73
2022/07/11 00:24:19;;;;;;;596.80;548.78;;;;;;;21.60;54.81;99368.97;341063;29;1578;-73
2022/07/11 00:24:29;;;;;;;596.53;548.63;;;;;;;21.61;54.66;99364.47;341214;29;865;-73
2022/07/11 00:24:40;;;;;;;594.15;546.42;;;;;;;21.60;54.82;99368.97;340688;29;1802;-73
2022/07/11 00:24:50;;;;;;;585.90;538.50;;;;;;;21.60;54.51;99368.97;339849;29;929;-73
2022/07/11 00:25:01;;;;;;;579.00;531.70;;;;;;;21.60;54.27;99368.13;339899;29;854;-73
2022/07/11 00:25:11;;;;;;;571.07;523.87;;;;;;;21.58;54.36;99366.44;339803;29;1611;-74
2022/07/11 00:25:22;;;;;;;566.88;519.58;;;;;;;21.59;54.84;99364.63;338472;29;952;-74
2022/07/11 00:25:32;;;;;;;573.90;526.40;;;;;;;21.61;54.88;99369.81;338431;29;1737;-74
2022/07/11 00:25:42;;;;;;;572.97;525.50;;;;;;;21.59;54.84;99367.28;339896;29;1015;-74
2022/07/11 00:25:53;;;;;;;579.07;531.50;;;;;;;21.58;54.52;99368.25;340531;29;1702;-73
2022/07/11 00:26:04;;;;;;;577.47;529.77;;;;;;;21.58;54.54;99369.09;341250;29;854;-73
2022/07/11 00:26:14;;;;;;;589.63;541.70;;;;;;;21.58;54.60;99366.44;340248;29;1768;-73
2022/07/11 00:26:24;;;;;;;582.08;534.15;;;;;;;21.57;54.89;99370.09;340700;28;1948;-73
2022/07/11 00:26:35;;;;;;;577.60;529.83;;;;;;;21.58;55.13;99370.94;342443;28;1600;-73
2022/07/11 00:26:49;;;;;;;572.13;524.53;;;;;;;21.57;54.89;99367.41;342571;28;942;-73
2022/07/11 00:26:59;;;;;;;579.08;531.53;;;;;;;21.56;54.67;99367.56;343346;28;1455;-73
2022/07/11 00:27:10;;;;;;;583.70;535.95;;;;;;;21.55;54.70;99361.38;342429;28;1286;-73
2022/07/11 00:27:20;;;;;;;583.03;535.17;;;;;;;21.56;55.06;99364.91;343731;28;1706;-73
2022/07/11 00:27:30;;;;;;;582.53;534.63;;;;;;;21.56;54.78;99365.75;345082;28;1475;-73
2022/07/11 00:27:41;;;;;;;576.70;529.20;;;;;;;21.57;54.70;99358.59;345621;28;1643;-73
2022/07/11 00:27:51;;;;;;;582.42;534.95;;;;;;;21.57;54.88;99364.75;342386;28;1343;-73
2022/07/11 00:28:02;;;;;;;582.73;535.47;;;;;;;21.58;55.25;99370.94;341268;29;1203;-73
2022/07/11 00:28:12;;;;;;;584.15;536.65;;;;;;;21.58;54.95;99371.78;341543;28;1391;-73
2022/07/11 00:28:22;;;;;;;579.30;531.87;;;;;;;21.60;54.46;99365.47;342491;28;847;-73
2022/07/11 00:28:33;;;;;;;576.05;528.47;;;;;;;21.58;54.94;99369.09;343602;28;1854;-73
2022/07/11 00:28:43;;;;;;;574.13;526.60;;;;;;;21.58;54.97;99365.59;343712;28;1204;-73
2022/07/11 00:28:54;;;;;;;576.33;528.67;;;;;;;21.56;54.50;99359.56;341153;29;1474;-73
2022/07/11 00:29:05;;;;;;;572.67;525.13;;;;;;;21.54;55.01;99364.19;339730;29;1647;-73
2022/07/11 00:29:15;;;;;;;568.80;521.42;;;;;;;21.53;54.62;99367.84;341026;29;1676;-73
2022/07/11 00:29:26;;;;;;;571.03;523.67;;;;;;;21.53;54.63;99362.50;343938;28;884;-73
2022/07/11 00:29:36;;;;;;;577.93;530.40;;;;;;;21.53;54.77;99370.50;341157;29;1634;-73
2022/07/11 00:29:47;;;;;;;583.08;535.53;;;;;;;21.52;54.64;99372.31;338688;29;846;-73
2022/07/11 00:29:57;;;;;;;585.17;537.57;;;;;;;21.53;54.50;99362.50;341118;29;1189;-73
2022/07/11 00:30:08;;;;;;;581.10;533.63;;;;;;;21.53;54.81;99362.50;341180;29;965;-73
2022/07/11 00:30:19;;;;;;;574.15;526.80;;;;;;;21.54;54.71;99365.03;341022;29;1297;-73
2022/07/11 00:30:29;;;;;;;572.67;525.27;;;;;;;21.54;54.80;99369.53;340990;29;913;-73
2022/07/11 00:30:40;;;;;;;574.75;527.30;;;;;;;21.54;55.02;99364.19;342257;28;1693;-73
2022/07/11 00:30:52;;;;;;;576.77;529.23;;;;;;;21.54;54.81;99364.19;342551;28;884;-73
2022/07/11 00:31:03;;;;;;;575.72;528.33;;;;;;;21.53;54.71;99363.34;341212;29;878;-73
2022/07/11 00:31:13;;;;;;;573.77;526.50;;;;;;;21.53;54.58;99365.16;340063;29;1860;-73
2022/07/11 00:31:23;;;;;;;577.42;530.03;;;;;;;21.52;54.57;99364.31;343439;28;1660;-73
2022/07/11 00:31:34;;;;;;;583.80;536.00;;;;;;;21.53;54.69;99363.34;342923;28;2031;-73
2022/07/11 00:31:44;;;;;;;586.23;538.30;;;;;;;21.53;54.79;99362.50;342302;28;1632;-73
2022/07/11 00:31:55;;;;;;;585.63;537.78;;;;;;;21.51;54.92;99362.66;341222;29;1050;-73
2022/07/11 00:32:06;;;;;;;585.65;537.85;;;;;;;21.49;55.19;99356.63;341058;29;1731;-73
2022/07/11 00:32:16;;;;;;;576.65;529.13;;;;;;;21.46;55.07;99359.56;338494;29;988;-73
2022/07/11 00:32:27;;;;;;;575.37;527.93;;;;;;;21.45;54.92;99357.88;341897;28;1542;-73
2022/07/11 00:32:37;;;;;;;579.55;531.95;;;;;;;21.44;54.68;99358.84;341144;29;1233;-73
2022/07/11 00:32:48;;;;;;;589.93;542.03;;;;;;;21.46;55.01;99362.22;342022;28;1390;-74
2022/07/11 00:32:58;;;;;;;584.50;536.50;;;;;;;21.46;54.69;99364.88;345290;28;797;-74
2022/07/11 00:33:09;;;;;;;580.20;532.30;;;;;;;21.45;54.84;99365.84;343035;28;1690;-74
2022/07/11 00:33:19;;;;;;;580.08;532.15;;;;;;;21.45;54.68;99365.00;343697;28;1224;-73
2022/07/11 00:33:29;;;;;;;583.57;535.53;;;;;;;21.45;55.06;99371.19;341073;29;1694;-73
2022/07/11 00:33:40;;;;;;;587.63;539.30;;;;;;;21.42;54.71;99366.13;341252;29;1648;-73
2022/07/11 00:33:50;;;;;;;581.22;533.08;;;;;;;21.44;54.98;99364.16;339821;29;1744;-73
2022/07/11 00:34:00;;;;;;;581.27;533.30;;;;;;;;;;341137;29;1532;-73
2022/07/11 00:34:11;;;;;;;574.03;526.45;;;;;;;21.43;55.19;99367.81;339749;28;1544;-73
2022/07/11 00:34:21;;;;;;;575.87;528.20;;;;;;;21.44;54.82;99366.84;340986;29;1713;-73
2022/07/11 00:34:32;;;;;;;579.20;531.47;;;;;;;21.42;54.90;99366.13;341273;29;867;-73
2022/07/11 00:34:42;;;;;;;584.20;536.40;;;;;;;21.44;54.96;99364.16;343839;28;1382;-73
2022/07/11 00:34:52;;;;;;;588.40;540.67;;;;;;;21.42;54.74;99366.13;341039;28;1322;-73
2022/07/11 00:35:03;;;;;;;585.90;538.20;;;;;;;21.39;55.13;99366.41;342418;28;1643;-73
2022/07/11 00:35:14;;;;;;;585.33;537.63;;;;;;;21.39;54.82;99369.06;343534;28;2193;-73
2022/07/11 00:35:24;;;;;;;582.37;534.73;;;;;;;21.38;55.13;99363.88;342343;28;1461;-73
2022/07/11 00:35:35;;;;;;;585.77;538.10;;;;;;;21.41;54.40;99369.78;339105;29;1477;-73
2022/07/11 00:35:45;;;;;;;583.95;536.33;;;;;;;21.41;54.48;99363.59;341566;28;1445;-73
2022/07/11 00:35:55;;;;;;;586.77;539.17;;;;;;;21.41;54.63;99359.13;342374;28;1217;-73
2022/07/11 00:36:06;;;;;;;587.97;540.40;;;;;;;21.41;55.02;99364.44;342200;28;1709;-73
2022/07/11 00:36:17;;;;;;;589.45;541.80;;;;;;;21.41;54.71;99368.94;342053;28;1984;-73
2022/07/11 00:36:27;;;;;;;587.00;539.27;;;;;;;21.41;54.62;99369.78;341133;28;1516;-73
2022/07/11 00:36:37;;;;;;;582.00;534.47;;;;;;;;;;341568;28;942;-73
2022/07/11 00:36:47;;;;;;;586.83;539.13;;;;;;;;;;341753;28;1915;-73
2022/07/11 00:36:58;;;;;;;588.03;540.33;;;;;;;21.44;54.54;99366.84;341130;29;974;-73
2022/07/11 00:37:08;;;;;;;594.07;546.23;;;;;;;21.43;54.83;99370.47;342284;28;1579;-73
2022/07/11 00:37:19;;;;;;;589.20;541.47;;;;;;;21.42;54.77;99360.81;341280;28;970;-73
2022/07/11 00:37:29;;;;;;;590.53;542.83;;;;;;;21.43;54.56;99373.13;341094;29;975;-73
2022/07/11 00:37:39;;;;;;;585.03;537.33;;;;;;;21.45;54.46;99371.19;342527;28;946;-73
2022/07/11 00:37:50;;;;;;;588.00;540.13;;;;;;;21.45;54.70;99370.34;343706;28;1383;-73
2022/07/11 00:38:00;;;;;;;589.90;541.90;;;;;;;21.44;54.78;99369.50;342274;28;1795;-73
2022/07/11 00:38:11;;;;;;;592.45;544.40;;;;;;;21.41;54.84;99361.78;341138;29;1759;-74
2022/07/11 00:38:21;;;;;;;589.27;541.23;;;;;;;21.41;54.40;99369.78;339744;29;1669;-74
2022/07/11 00:38:31;;;;;;;581.10;533.28;;;;;;;21.40;54.70;99364.59;341048;29;881;-74
2022/07/11 00:38:42;;;;;;;574.60;527.03;;;;;;;21.40;54.81;99362.75;343551;28;1368;-74
2022/07/11 00:38:52;;;;;;;575.25;527.80;;;;;;;21.40;54.56;99373.41;343818;28;1534;-74
2022/07/11 00:39:03;;;;;;;575.80;528.37;;;;;;;21.38;54.57;99364.72;343670;28;1632;-74
2022/07/11 00:39:13;;;;;;;579.53;531.90;;;;;;;21.40;54.51;99362.75;342444;28;1156;-74
2022/07/11 00:39:24;;;;;;;577.90;530.17;;;;;;;21.39;54.22;99362.91;341836;28;1777;-74
2022/07/11 00:39:34;;;;;;;578.03;530.40;;;;;;;21.39;54.85;99365.56;341284;29;928;-74
2022/07/11 00:39:44;;;;;;;580.23;532.60;;;;;;;21.39;54.87;99371.72;341039;28;1359;-74
2022/07/11 00:39:55;;;;;;;581.00;533.43;;;;;;;21.38;54.38;99366.53;341233;29;764;-74
2022/07/11 00:40:06;;;;;;;574.40;527.00;;;;;;;21.35;54.41;99362.31;341216;29;985;-73
2022/07/11 00:40:17;;;;;;;573.22;525.85;;;;;;;21.33;54.92;99366.94;341175;29;1043;-73
2022/07/11 00:40:27;;;;;;;571.35;524.00;;;;;;;21.33;54.47;99366.94;339760;29;1602;-73
2022/07/11 00:40:38;;;;;;;577.67;530.07;;;;;;;21.34;54.19;99363.31;342621;28;896;-73
2022/07/11 00:40:48;;;;;;;582.35;534.67;;;;;;;21.35;54.53;99364.16;343659;28;1373;-73
2022/07/11 00:40:58;;;;;;;587.33;539.67;;;;;;;21.34;54.22;99357.97;345202;28;955;-73
2022/07/11 00:41:09;;;;;;;590.00;542.37;;;;;;;21.36;54.30;99363.16;343856;28;1552;-73
2022/07/11 00:41:19;;;;;;;577.78;530.28;;;;;;;21.38;54.49;99370.03;343769;28;1891;-73
2022/07/11 00:41:29;;;;;;;575.20;527.70;;;;;;;21.38;54.59;99364.72;339870;29;1269;-73
2022/07/11 00:41:40;;;;;;;576.47;528.90;;;;;;;21.39;54.33;99366.41;339969;29;830;-74
2022/07/11 00:41:50;;;;;;;577.53;530.03;;;;;;;21.39;54.01;99369.06;338660;29;2001;-74
2022/07/11 00:42:01;;;;;;;577.95;530.33;;;;;;;21.38;54.23;99367.38;339954;29;866;-74
2022/07/11 00:42:11;;;;;;;579.80;532.10;;;;;;;21.38;54.85;99359.38;342209;28;1451;-74
2022/07/11 00:42:21;;;;;;;582.40;534.60;;;;;;;21.36;53.94;99366.69;340977;29;1490;-74
2022/07/11 00:42:32;;;;;;;585.15;537.35;;;;;;;21.36;53.88;99364.00;341264;28;964;-73
2022/07/11 00:42:42;;;;;;;587.37;539.67;;;;;;;21.39;54.21;99365.56;340958;29;1625;-73
2022/07/11 00:42:53;;;;;;;592.35;544.58;;;;;;;21.38;53.85;99361.22;341209;29;962;-73
2022/07/11 00:43:03;;;;;;;592.53;544.53;;;;;;;21.39;53.99;99366.41;342352;28;1734;-73
2022/07/11 00:43:18;;;;;;;590.78;542.67;;;;;;;21.41;54.12;99372.44;343775;28;1256;-74
2022/07/11 00:43:33;;;;;;;592.20;544.13;;;;;;;21.42;53.78;99367.94;342273;28;1708;-74
2022/07/11 00:43:43;;;;;;;581.83;534.00;;;;;;;21.41;54.21;99367.09;340993;28;1578;-73
2022/07/11 00:43:58;;;;;;;577.05;529.45;;;;;;;21.42;53.76;99366.13;342613;28;893;-73
2022/07/11 00:44:08;;;;;;;580.60;532.85;;;;;;;21.41;54.72;99366.25;341940;28;1311;-73
2022/07/11 00:44:18;;;;;;;580.55;532.80;;;;;;;21.40;54.56;99367.25;342513;28;1244;-73
2022/07/11 00:44:29;;;;;;;583.37;535.53;;;;;;;21.39;54.40;99363.75;339743;29;1537;-73
2022/07/11 00:44:39;;;;;;;579.75;532.22;;;;;;;21.39;53.75;99366.41;341200;28;1256;-74
2022/07/11 00:44:50;;;;;;;581.67;534.03;;;;;;;21.40;53.82;99368.09;342307;28;1436;-73
2022/07/11 00:45:00;;;;;;;574.45;527.03;;;;;;;21.40;54.11;99377.91;342525;28;881;-73
2022/07/11 00:45:10;;;;;;;575.93;528.20;;;;;;;21.40;53.77;99367.25;340995;28;1224;-73
2022/07/11 00:45:21;;;;;;;576.50;528.77;;;;;;;21.41;53.72;99371.59;343637;28;1662;-73
2022/07/11 00:45:32;;;;;;;574.70;526.97;;;;;;;21.40;53.83;99370.75;341317;29;878;-73
2022/07/11 00:45:42;;;;;;;574.33;526.95;;;;;;;21.41;54.10;99364.44;342469;28;1495;-73
2022/07/11 00:45:52;;;;;;;569.63;522.40;;;;;;;21.41;54.19;99369.78;343862;28;1193;-73
2022/07/11 00:46:06;;;;;;;579.33;532.00;;;;;;;21.42;53.90;99376.78;345032;28;1173;-73
2022/07/11 00:46:17;;;;;;;581.17;533.83;;;;;;;21.42;54.21;99371.44;342307;28;1797;-73
2022/07/11 00:46:28;;;;;;;584.28;536.83;;;;;;;21.43;53.93;99366.97;339756;29;1915;-73
2022/07/11 00:46:38;;;;;;;577.10;529.80;;;;;;;21.45;53.70;99381.00;341134;29;1195;-73
2022/07/11 00:46:49;;;;;;;574.95;527.65;;;;;;;21.43;54.19;99373.13;341131;29;1446;-73
2022/07/11 00:46:59;;;;;;;567.97;520.80;;;;;;;21.45;53.95;99371.19;342439;28;1651;-73
2022/07/11 00:47:10;;;;;;;573.73;526.40;;;;;;;21.46;53.93;99378.19;343791;28;1878;-73
2022/07/11 00:47:20;;;;;;;579.03;531.55;;;;;;;21.46;53.97;99372.88;342321;28;1892;-73
2022/07/11 00:47:30;;;;;;;581.87;534.33;;;;;;;21.44;54.14;99369.50;341247;29;1395;-73
2022/07/11 00:47:41;;;;;;;572.47;525.20;;;;;;;21.42;54.16;99368.78;341232;29;904;-73
2022/07/11 00:47:51;;;;;;;576.37;528.83;;;;;;;21.43;53.80;99375.81;342570;28;880;-73
2022/07/11 00:48:02;;;;;;;583.28;535.60;;;;;;;21.44;53.88;99369.50;343756;28;1129;-72
2022/07/11 00:48:12;;;;;;;588.00;540.10;;;;;;;21.46;54.00;99377.34;343835;28;1124;-72
2022/07/11 00:48:22;;;;;;;579.93;532.30;;;;;;;21.45;53.85;99376.50;343899;28;930;-72
2022/07/11 00:48:33;;;;;;;575.70;528.13;;;;;;;21.45;53.96;99381.84;342447;28;1336;-72
2022/07/11 00:48:43;;;;;;;567.27;519.80;;;;;;;21.45;54.04;99373.84;340897;29;2347;-72
2022/07/11 00:48:54;;;;;;;572.08;524.50;;;;;;;21.38;54.15;99367.38;341259;29;806;-72
2022/07/11 00:49:04;;;;;;;572.53;525.10;;;;;;;21.38;54.37;99370.03;340515;29;1586;-72